KOSU/OSU METAR and TAF weather

Enter ICAO airport designator
Station Type Date Time Source
KOSU METAR 2019/06/26 05:53 UTC NOAA

KOSU 260553Z AUTO 22006KT 10SM CLR 21/16 A3005 RMK AO2 SLP169 T02110161 10267 20211 53008


Station Type Date Time Source
KOSU Decoded METAR 2019/06/26 05:53 UTC NOAA

OHIO STATE UNIVERSITY AIRPORT , OH, United States (KOSU) 40-05N 083-05W 280M
Jun 26, 2019 - 01:53 AM EDT / 2019.06.26 0553 UTC
Wind: from the SW (220 degrees) at 7 MPH (6 KT):0
Visibility: 10 mile(s):0
Sky conditions: clear
Temperature: 70.0 F (21.1 C)
Dew Point: 61.0 F (16.1 C)
Relative Humidity: 73%
Pressure (altimeter): 30.05 in. Hg (1017 hPa)
Pressure tendency: 0.02 inches (0.8 hPa) higher than three hours ago
ob: KOSU 260553Z AUTO 22006KT 10SM CLR 21/16 A3005 RMK AO2 SLP169 T02110161 10267 20211 53008
cycle: 6

Station Type Date Time Source
KOSU TAF UTC NOAA

Error!

Example: see airport list